Funabashi, Japan
Current Conditions -  °F | °C
As of 5:30 PM on Friday 19 Dec 2014 (Local Time) from RJTT Reporting Station
Scattered Clouds Scattered Clouds  
Wind Chill: 40°   Ceiling: Unl
Heat Index: 46°   Visibility: 6mi
Dew Point: 25°   Wind: 16mph
Humidity: 43%   Direction: 160°SSE
Pressure: 30.42"   Gusts: NA
Location:  35.7°N, 139.99°E
Report Text: RJTT 190830Z 16014KT 9999 FEW030 SCT/// 08/M04 Q1030 NOSIG
Loading
Personal Weather Stations






























Interactive Weather Map New forecast layout! Learn more

10-Day Weather Forecast

Advertisements
Track Severe Weather on mobile